Terminal Aerodrome Forecast
Issued by NWS

Home | Current Version | Previous Version | Text Only | Print | Product List | Glossary On
Versions: 1 2 3 4 5 6 7 8 9 10 11 12 13 14 15 16 17 18 19 20 21 22 23 24 25 26 27 28 29 30 31 32 33
000
FTUS45 KLKN 252335
TAFELY
TAF
KELY 252335Z 2600/2624 20008KT P6SM VCTS BKN070CB
      TEMPO 2600/2603 VRB15G30KT 5SM -TSRA BKN050CB
     FM261000 16004KT P6SM BKN080
     FM262000 18010KT P6SM VCTS BKN090CB=

USA.gov is the U.S. government's official web portal to all federal, state and local government web resources and services.